Springfield, OH

6:30 PM EDT on March 27, 2017 (GMT -0400)
Springfield-Beckley Municipal | | Change Station

Elev 1050 ft 39.84 °N, 83.84 °W | Updated 34 minutes ago

Overcast
Overcast
62 °F
Feels Like 62 °F
N
9
Wind Variable Wind from SSE

Today
High -- | Low -- °F
--% Chance of Precip.
Yesterday
High -- | Low -- °F
Precip. -- in
Pressure 29.89 in
Visibility 10.0 miles
Clouds Few 3500 ft
Overcast 11000 ft
Dew Point 53 °F
Humidity 72%
Rainfall 0.00 in
Snow Depth Not available.
7:27 AM 7:54 PM
Waning Crescent, 0% visible
METAR KSGH 272156Z AUTO 15008KT 10SM FEW035 OVC110 17/12 A2988 RMK AO2 SLP120 T01670117
Pressure 29.89 in
Visibility 10.0 miles
Clouds Few 3500 ft
Overcast 11000 ft
Dew Point 53 °F
Humidity 72%
Rainfall 0.00 in
Snow Depth Not available.
7:27 AM 7:54 PM
Waning Crescent, 0% visible
METAR KSGH 272156Z AUTO 15008KT 10SM FEW035 OVC110 17/12 A2988 RMK AO2 SLP120 T01670117

Get Severe Weather Alerts

Thanks for signing up!

Be on the lookout for a verification email in your inbox.

You'll start receiving the daily forecast at 8 AM.

×

10-Day Weather Forecast

Almanac

Astronomy

Mar. 27, 2017 Rise Set
Actual Time
Civil Twilight
Nautical Twilight
Astronomical Twilight
Moon
Length of Visible Light
Length of Day
Tomorrow will be .
, % of the Moon is Illuminated

Today's Extremes

State Highs State Lows

Community

WunderPhotos

Upload Photos

1,962,540 photos uploaded!

WunderBlog® & News

Nearby

Air Quality

  Air Quality AQ Index Pollutant
Not available.

Snow Depth

Station Depth Elevation

Earthquake Activity

City Distance Mag. Time & Date
Minimum magnitude displayed is 2.5.

Earthquake Activity

City Distance Mag. Time & Date
Minimum magnitude displayed is 2.5.

Coastal Water Temperatures

Place Temperature

Stations

Nearby Weather Stations

Station Location Temp. Windchill Dew Point Humidity Wind Precip. Elev Updated Type
                   

Watches & Warnings

There are currently no watches in effect.